createdAt,value
2019-04-06T00:00:54.764Z,51.98
2019-04-06T00:03:26.406Z,51.60
2019-04-06T00:05:58.207Z,51.68
2019-04-06T00:08:29.847Z,51.98
2019-04-06T00:11:01.509Z,51.97
2019-04-06T00:13:33.147Z,52.13
2019-04-06T00:16:04.839Z,52.31
2019-04-06T00:18:37.290Z,52.37
2019-04-06T00:21:09.137Z,52.47
2019-04-06T00:23:40.929Z,53.18
2019-04-06T00:26:12.558Z,54.75
2019-04-06T00:28:44.138Z,54.74
2019-04-06T00:31:33.991Z,53.31
2019-04-06T00:34:05.649Z,53.18
2019-04-06T00:36:37.311Z,53.23
2019-04-06T00:39:08.949Z,52.90
2019-04-06T00:41:42.218Z,52.15
2019-04-06T00:44:14.010Z,51.82
2019-04-06T00:46:45.461Z,51.23
2019-04-06T00:49:17.027Z,51.81
2019-04-06T00:51:49.261Z,52.15
2019-04-06T00:54:24.314Z,52.19
2019-04-06T00:57:01.608Z,52.88
2019-04-06T00:59:34.968Z,53.94
2019-04-06T01:02:07.292Z,54.74
2019-04-06T01:04:39.767Z,55.21
2019-04-06T01:07:11.535Z,55.70
2019-04-06T01:09:43.185Z,55.61
2019-04-06T01:12:15.800Z,56.64
2019-04-06T01:14:47.389Z,58.47
2019-04-06T01:17:19.055Z,57.66
2019-04-06T01:19:51.711Z,56.20
2019-04-06T01:22:23.116Z,55.82
2019-04-06T01:25:14.951Z,56.83
2019-04-06T01:27:46.722Z,57.06
2019-04-06T01:30:19.367Z,57.20
2019-04-06T01:32:51.437Z,57.62
2019-04-06T01:35:23.140Z,58.45
2019-04-06T01:37:54.998Z,58.45
2019-04-06T01:40:26.756Z,58.28
2019-04-06T01:42:58.675Z,58.13
2019-04-06T01:45:30.822Z,57.64
2019-04-06T01:48:02.347Z,57.58
2019-04-06T01:50:34.089Z,57.85
2019-04-06T01:53:05.657Z,58.28
2019-04-06T01:55:37.779Z,58.48
2019-04-06T01:58:09.380Z,58.76
2019-04-06T02:00:42.653Z,58.65
2019-04-06T02:03:14.361Z,59.49
2019-04-06T02:05:45.789Z,59.24
2019-04-06T02:08:17.438Z,60.07
2019-04-06T02:10:49.094Z,60.88
2019-04-06T02:13:20.547Z,61.27
2019-04-06T02:15:52.156Z,61.66
2019-04-06T02:18:23.783Z,62.57
2019-04-06T02:20:56.613Z,63.07
2019-04-06T02:23:28.242Z,63.14
2019-04-06T02:26:00.234Z,62.57
2019-04-06T02:28:33.573Z,62.81
2019-04-06T02:31:09.569Z,62.94
2019-04-06T02:33:48.868Z,63.11
2019-04-06T02:36:34.103Z,62.89
2019-04-06T02:39:11.280Z,62.87
2019-04-06T02:41:47.585Z,62.57
2019-04-06T02:44:19.309Z,62.54
2019-04-06T02:46:51.037Z,63.33
2019-04-06T02:49:22.641Z,63.31
2019-04-06T02:51:55.799Z,62.32
2019-04-06T02:54:27.502Z,63.18
2019-04-06T02:56:59.216Z,63.11
2019-04-06T02:59:31.266Z,63.77
2019-04-06T03:02:03.904Z,64.13
2019-04-06T03:04:35.629Z,64.58
2019-04-06T03:07:07.195Z,64.44
2019-04-06T03:09:38.850Z,64.50
2019-04-06T03:12:10.574Z,64.89
2019-04-06T03:14:44.591Z,65.33
2019-04-06T03:17:15.405Z,65.79
2019-04-06T03:19:47.236Z,65.75
2019-04-06T03:22:19.815Z,66.26
2019-04-06T03:24:51.536Z,66.49
2019-04-06T03:27:23.259Z,66.45
2019-04-06T03:29:58.431Z,66.70
2019-04-06T03:32:28.400Z,66.07
2019-04-06T03:35:00.096Z,66.10
2019-04-06T03:37:31.767Z,66.18
2019-04-06T03:40:05.478Z,65.74
2019-04-06T03:42:37.351Z,65.66
2019-04-06T03:45:09.535Z,65.76
2019-04-06T03:47:42.351Z,65.77
2019-04-06T03:50:14.196Z,65.69
2019-04-06T03:52:45.747Z,65.72
2019-04-06T03:55:17.604Z,65.54
2019-04-06T03:57:49.270Z,65.63
2019-04-06T04:00:22.610Z,65.46
2019-04-06T04:02:54.214Z,65.77
2019-04-06T04:05:25.971Z,65.76
2019-04-06T04:07:57.780Z,65.86
2019-04-06T04:10:35.676Z,65.87
2019-04-06T04:13:07.250Z,65.40
2019-04-06T04:15:39.222Z,65.16
2019-04-06T04:18:10.933Z,64.73
2019-04-06T04:20:42.324Z,64.59
2019-04-06T04:23:14.706Z,64.24
2019-04-06T04:25:46.180Z,63.57
2019-04-06T04:28:17.836Z,63.31
2019-04-06T04:30:49.603Z,63.20
2019-04-06T04:33:22.445Z,62.98
2019-04-06T04:35:53.972Z,62.55
2019-04-06T04:38:26.704Z,62.35
2019-04-06T04:40:58.360Z,62.16
2019-04-06T04:43:30.244Z,61.60
2019-04-06T04:46:01.863Z,60.81
2019-04-06T04:48:33.452Z,60.45
2019-04-06T04:51:06.530Z,60.07
2019-04-06T04:53:38.357Z,59.92
2019-04-06T04:56:09.944Z,59.40
2019-04-06T04:58:41.498Z,59.03
2019-04-06T05:01:13.317Z,58.54
2019-04-06T05:03:44.964Z,58.04
2019-04-06T05:06:16.680Z,57.75
2019-04-06T05:08:49.339Z,57.18
2019-04-06T05:11:21.125Z,55.83
2019-04-06T05:14:12.281Z,54.55
2019-04-06T05:16:44.067Z,54.12
2019-04-06T05:19:16.583Z,52.10
2019-04-06T05:24:27.161Z,50.67
2019-04-06T05:26:58.770Z,50.86
2019-04-06T05:29:33.106Z,49.76
2019-04-06T05:32:04.986Z,49.04
2019-04-06T05:34:36.879Z,46.65
2019-04-06T05:37:10.133Z,47.87
2019-04-06T05:39:41.670Z,46.02
2019-04-06T05:42:13.839Z,45.23
2019-04-06T05:44:45.695Z,45.88
2019-04-06T05:47:17.281Z,45.97
2019-04-06T05:49:49.958Z,45.29
2019-04-06T05:52:21.517Z,44.79
2019-04-06T05:54:53.158Z,44.28
2019-04-06T05:57:24.850Z,44.17
2019-04-06T05:59:56.457Z,43.25
2019-04-06T06:02:28.142Z,42.93
2019-04-06T06:05:01.216Z,43.93
2019-04-06T06:07:33.202Z,44.94
2019-04-06T06:10:06.920Z,42.42
2019-04-06T06:12:38.632Z,42.83
2019-04-06T06:15:11.442Z,42.44
2019-04-06T06:17:43.290Z,42.65
2019-04-06T06:20:16.427Z,42.38
2019-04-06T06:22:48.654Z,42.28
2019-04-06T06:25:21.206Z,42.13
2019-04-06T06:27:54.623Z,41.59
2019-04-06T06:30:26.428Z,41.13
2019-04-06T06:32:58.161Z,41.63
2019-04-06T06:35:30.065Z,41.27
2019-04-06T06:38:03.182Z,40.67
2019-04-06T06:40:35.857Z,40.77
2019-04-06T06:43:08.084Z,40.16
2019-04-06T06:45:39.998Z,40.29
2019-04-06T06:48:13.158Z,39.85
2019-04-06T06:50:47.003Z,39.78
2019-04-06T06:53:18.696Z,39.14
2019-04-06T06:55:53.985Z,39.01
2019-04-06T06:58:26.544Z,38.04
2019-04-06T07:01:03.297Z,37.62
2019-04-06T07:03:35.129Z,37.06
2019-04-06T07:06:06.922Z,36.97
2019-04-06T07:09:03.167Z,36.92
2019-04-06T07:11:34.820Z,36.30
2019-04-06T07:14:08.299Z,36.66
2019-04-06T07:16:41.381Z,35.41
2019-04-06T07:19:13.245Z,35.20
2019-04-06T07:21:46.091Z,34.79
2019-04-06T07:24:19.771Z,34.86
2019-04-06T07:26:52.678Z,33.78
2019-04-06T07:29:24.370Z,34.00
2019-04-06T07:31:56.440Z,33.53
2019-04-06T07:34:28.380Z,34.18
2019-04-06T07:37:01.738Z,34.41
2019-04-06T07:39:33.486Z,32.44
2019-04-06T07:42:05.734Z,31.94
2019-04-06T07:44:39.104Z,32.83
2019-04-06T07:47:11.938Z,33.02
2019-04-06T07:49:43.627Z,32.34
2019-04-06T07:52:15.256Z,32.12
2019-04-06T07:54:47.056Z,32.19
2019-04-06T07:57:18.855Z,32.75
2019-04-06T07:59:50.686Z,32.33
2019-04-06T08:02:22.440Z,32.39
2019-04-06T08:04:54.113Z,32.11
2019-04-06T08:07:25.773Z,31.74
2019-04-06T08:09:57.491Z,31.96
2019-04-06T08:12:28.964Z,31.72
2019-04-06T08:15:00.514Z,32.51
2019-04-06T08:17:31.969Z,30.42
2019-04-06T08:20:06.849Z,30.77
2019-04-06T08:22:38.460Z,30.80
2019-04-06T08:25:10.398Z,29.89
2019-04-06T08:27:47.485Z,30.50
2019-04-06T08:30:19.055Z,30.12
2019-04-06T08:32:50.738Z,29.84
2019-04-06T08:35:26.162Z,30.46
2019-04-06T08:37:55.431Z,30.19
2019-04-06T08:40:27.412Z,29.62
2019-04-06T08:42:59.444Z,29.64
2019-04-06T08:45:31.312Z,30.45
2019-04-06T08:48:04.977Z,29.38
2019-04-06T08:50:36.501Z,29.92
2019-04-06T08:53:10.933Z,28.89
2019-04-06T08:55:43.271Z,29.69
2019-04-06T08:58:14.856Z,29.84
2019-04-06T09:00:51.477Z,29.41
2019-04-06T09:03:23.951Z,29.95
2019-04-06T09:05:55.666Z,29.20
2019-04-06T09:08:28.859Z,29.68
2019-04-06T09:11:02.701Z,29.68
2019-04-06T09:13:36.820Z,29.69
2019-04-06T09:16:08.511Z,28.89
2019-04-06T09:18:40.516Z,28.13
2019-04-06T09:21:15.516Z,28.52
2019-04-06T09:23:47.302Z,27.69
2019-04-06T09:26:19.573Z,27.50
2019-04-06T09:29:03.116Z,28.01
2019-04-06T09:31:35.232Z,27.50
2019-04-06T09:34:09.184Z,27.08
2019-04-06T09:36:41.075Z,27.74
2019-04-06T09:39:13.005Z,29.39
2019-04-06T09:41:44.933Z,27.21
2019-04-06T09:44:21.342Z,27.01
2019-04-06T09:47:01.900Z,26.92
2019-04-06T09:49:47.758Z,26.38
2019-04-06T09:52:33.595Z,26.35
2019-04-06T09:55:22.839Z,26.83
2019-04-06T09:58:15.593Z,25.77
2019-04-06T10:00:54.992Z,25.87
2019-04-06T10:03:34.411Z,25.89
2019-04-06T10:06:13.643Z,26.03
2019-04-06T10:08:52.635Z,27.37
2019-04-06T10:11:31.748Z,25.62
2019-04-06T10:14:14.029Z,25.49
2019-04-06T10:16:56.876Z,25.69
2019-04-06T10:19:30.097Z,25.01
2019-04-06T10:22:12.037Z,24.53
2019-04-06T10:24:45.532Z,23.89
2019-04-06T10:27:18.630Z,23.50
2019-04-06T10:30:10.596Z,24.26
2019-04-06T10:32:46.686Z,23.01
2019-04-06T10:35:28.920Z,22.84
2019-04-06T10:38:04.707Z,23.38
2019-04-06T10:40:54.563Z,21.26
2019-04-06T10:43:28.242Z,22.58
2019-04-06T10:46:04.125Z,20.08
2019-04-06T10:48:55.239Z,21.24
2019-04-06T10:51:42.069Z,20.69
2019-04-06T10:54:33.323Z,21.23
2019-04-06T10:57:06.807Z,21.20
2019-04-06T10:59:40.605Z,20.23
2019-04-06T11:02:30.206Z,20.08
2019-04-06T11:05:05.991Z,20.35
2019-04-06T11:07:40.308Z,19.45
2019-04-06T11:10:13.785Z,20.06
2019-04-06T11:12:52.912Z,20.00
2019-04-06T11:15:26.366Z,20.53
2019-04-06T11:18:17.818Z,20.02
2019-04-06T11:20:50.972Z,20.24
2019-04-06T11:23:30.282Z,20.00
2019-04-06T11:26:19.985Z,19.52
2019-04-06T11:29:02.958Z,19.24
2019-04-06T11:31:53.573Z,19.57
2019-04-06T11:34:26.861Z,18.85
2019-04-06T11:37:19.018Z,19.75
2019-04-06T11:40:10.117Z,20.72
2019-04-06T11:43:00.094Z,19.27
2019-04-06T11:45:33.547Z,18.79
2019-04-06T11:48:10.013Z,18.55
2019-04-06T11:51:00.095Z,18.18
2019-04-06T11:53:36.366Z,18.53
2019-04-06T11:56:09.653Z,18.00
2019-04-06T11:58:52.871Z,19.42
2019-04-06T12:01:29.377Z,17.48
2019-04-06T12:04:02.578Z,18.35
2019-04-06T12:06:36.645Z,17.63
2019-04-06T12:09:10.525Z,17.80
2019-04-06T12:12:00.645Z,17.69
2019-04-06T12:14:37.803Z,17.45
2019-04-06T12:17:17.137Z,17.68
2019-04-06T12:20:08.872Z,18.32
2019-04-06T12:22:44.990Z,18.41
2019-04-06T12:25:23.968Z,18.16
2019-04-06T12:28:03.765Z,18.30
2019-04-06T12:30:49.213Z,18.52
2019-04-06T12:33:26.377Z,18.09
2019-04-06T12:36:00.036Z,17.86
2019-04-06T12:38:35.837Z,17.93
2019-04-06T12:41:20.912Z,18.39
2019-04-06T12:44:12.199Z,18.05
2019-04-06T12:46:52.175Z,18.18
2019-04-06T12:49:41.691Z,18.42
2019-04-06T12:52:23.859Z,18.40
2019-04-06T12:55:06.774Z,18.08
2019-04-06T12:57:48.465Z,17.13
2019-04-06T13:00:34.004Z,17.75
2019-04-06T13:03:24.245Z,17.83
2019-04-06T13:05:59.612Z,17.46
2019-04-06T13:08:49.468Z,17.36
2019-04-06T13:11:40.075Z,17.62
2019-04-06T13:17:35.640Z,18.65
2019-04-06T13:20:24.986Z,18.13
2019-04-06T13:23:14.383Z,18.37
2019-04-06T13:26:00.170Z,18.93
2019-04-06T13:28:36.508Z,19.68
2019-04-06T13:31:18.924Z,19.65
2019-04-06T13:34:05.922Z,20.34
2019-04-06T13:36:40.753Z,20.32
2019-04-06T13:39:26.715Z,20.42
2019-04-06T13:42:06.432Z,20.74
2019-04-06T13:44:49.988Z,22.04
2019-04-06T13:47:29.694Z,21.67
2019-04-06T13:50:19.617Z,21.12
2019-04-06T13:53:11.158Z,20.46
2019-04-06T13:55:44.392Z,20.08
2019-04-06T13:58:17.681Z,18.96
2019-04-06T14:00:53.326Z,19.67
2019-04-06T14:03:41.240Z,19.75
2019-04-06T14:06:24.025Z,20.00
2019-04-06T14:09:03.658Z,20.00
2019-04-06T14:11:37.166Z,21.61
2019-04-06T14:14:14.046Z,21.72
2019-04-06T14:16:52.217Z,22.04
2019-04-06T14:19:25.981Z,23.07
2019-04-06T14:21:59.339Z,23.48
2019-04-06T14:24:37.440Z,23.52
2019-04-06T14:27:27.419Z,24.09
2019-04-06T14:30:11.255Z,23.85
2019-04-06T14:32:53.376Z,24.15
2019-04-06T14:35:47.994Z,24.45
2019-04-06T14:38:37.881Z,24.70
2019-04-06T14:41:16.703Z,25.31
2019-04-06T14:44:06.994Z,25.92
2019-04-06T14:46:45.121Z,25.94
2019-04-06T14:49:29.505Z,26.28
2019-04-06T14:52:07.246Z,26.28
2019-04-06T14:54:46.173Z,26.18
2019-04-06T14:57:25.879Z,26.09
2019-04-06T15:00:09.031Z,26.03
2019-04-06T15:02:54.289Z,26.42
2019-04-06T15:05:30.172Z,27.58
2019-04-06T15:08:04.592Z,27.41
2019-04-06T15:10:40.645Z,27.32
2019-04-06T15:13:29.381Z,27.67
2019-04-06T15:16:05.153Z,28.19
2019-04-06T15:18:38.616Z,27.95
2019-04-06T15:21:11.968Z,28.41
2019-04-06T15:24:01.734Z,27.59
2019-04-06T15:26:46.901Z,27.93
2019-04-06T15:29:33.610Z,27.38
2019-04-06T15:32:19.369Z,27.57
2019-04-06T15:35:02.028Z,27.96
2019-04-06T15:37:47.873Z,27.98
2019-04-06T15:40:33.393Z,28.40
2019-04-06T15:43:23.579Z,28.49
2019-04-06T15:46:00.383Z,28.29
2019-04-06T15:48:49.936Z,28.01
2019-04-06T15:51:29.475Z,28.17
2019-04-06T15:54:05.641Z,28.43
2019-04-06T15:57:00.290Z,28.77
2019-04-06T15:59:51.327Z,28.90
2019-04-06T16:02:24.872Z,28.85
2019-04-06T16:05:02.441Z,29.27
2019-04-06T16:07:49.046Z,29.35
2019-04-06T16:10:39.184Z,29.47
2019-04-06T16:13:16.899Z,30.22
2019-04-06T16:15:53.947Z,30.58
2019-04-06T16:18:45.054Z,30.58
2019-04-06T16:21:35.266Z,30.76
2019-04-06T16:24:12.849Z,30.86
2019-04-06T16:26:56.777Z,31.02
2019-04-06T16:29:30.392Z,31.34
2019-04-06T16:32:11.484Z,31.51
2019-04-06T16:34:40.890Z,31.65
2019-04-06T16:37:19.231Z,31.94
2019-04-06T16:39:56.295Z,32.27
2019-04-06T16:42:32.822Z,32.13
2019-04-06T16:45:24.077Z,32.33
2019-04-06T16:48:09.533Z,32.39
2019-04-06T16:51:00.830Z,32.55
2019-04-06T16:53:34.231Z,32.70
2019-04-06T16:56:10.747Z,32.83
2019-04-06T16:58:43.849Z,33.04
2019-04-06T17:01:23.267Z,33.24
2019-04-06T17:04:11.814Z,33.01
2019-04-06T17:06:49.061Z,33.04
2019-04-06T17:09:25.848Z,33.23
2019-04-06T17:11:59.252Z,33.58
2019-04-06T17:14:48.548Z,33.63
2019-04-06T17:17:24.647Z,33.84
2019-04-06T17:20:00.813Z,33.70
2019-04-06T17:22:50.547Z,33.90
2019-04-06T17:25:29.653Z,33.85
2019-04-06T17:28:09.085Z,33.77
2019-04-06T17:30:45.157Z,33.86
2019-04-06T17:33:19.034Z,34.14
2019-04-06T17:36:10.810Z,34.15
2019-04-06T17:39:00.258Z,34.35
2019-04-06T17:41:51.169Z,34.37
2019-04-06T17:44:37.271Z,34.69
2019-04-06T17:47:23.102Z,34.67
2019-04-06T17:50:06.257Z,34.21
2019-04-06T17:52:43.957Z,34.36
2019-04-06T17:55:17.942Z,34.49
2019-04-06T17:57:53.754Z,34.56
2019-04-06T18:00:43.836Z,35.05
2019-04-06T18:03:35.518Z,35.35
2019-04-06T18:06:16.761Z,35.25
2019-04-06T18:09:08.475Z,35.22
2019-04-06T18:12:04.890Z,35.28
2019-04-06T18:14:36.768Z,35.28
2019-04-06T18:17:08.867Z,35.35
2019-04-06T18:19:40.492Z,35.40
2019-04-06T18:22:12.592Z,35.37
2019-04-06T18:24:45.186Z,35.67
2019-04-06T18:27:17.338Z,35.82
2019-04-06T18:29:49.326Z,35.83
2019-04-06T18:32:26.144Z,36.10
2019-04-06T18:34:57.579Z,36.07
2019-04-06T18:37:30.795Z,36.33
2019-04-06T18:40:08.113Z,36.55
2019-04-06T18:42:40.550Z,36.58
2019-04-06T18:45:14.398Z,36.77
2019-04-06T18:47:47.302Z,37.22
2019-04-06T18:50:33.341Z,37.48
2019-04-06T18:52:56.926Z,37.78
2019-04-06T18:55:28.961Z,38.04
2019-04-06T18:58:10.622Z,38.13
2019-04-06T19:00:34.953Z,38.35
2019-04-06T19:03:14.179Z,38.64
2019-04-06T19:05:40.534Z,39.04
2019-04-06T19:08:14.302Z,38.88
2019-04-06T19:10:46.011Z,39.36
2019-04-06T19:13:19.371Z,39.38
2019-04-06T19:15:50.916Z,39.55
2019-04-06T19:18:23.081Z,39.60
2019-04-06T19:20:55.226Z,39.18
2019-04-06T19:23:27.702Z,39.08
2019-04-06T19:26:00.229Z,39.33
2019-04-06T19:28:32.979Z,39.29
2019-04-06T19:31:07.555Z,38.78
2019-04-06T19:33:42.195Z,39.01
2019-04-06T19:36:13.748Z,39.12
2019-04-06T19:38:45.431Z,38.98
2019-04-06T19:41:17.880Z,39.47
2019-04-06T19:43:49.967Z,39.74
2019-04-06T19:46:22.771Z,39.55
2019-04-06T19:48:54.746Z,39.70
2019-04-06T19:51:26.554Z,39.73
2019-04-06T19:53:58.494Z,39.63
2019-04-06T19:56:30.706Z,39.97
2019-04-06T19:59:02.901Z,39.96
2019-04-06T20:01:35.491Z,39.94
2019-04-06T20:04:07.247Z,40.54
2019-04-06T20:06:39.056Z,40.17
2019-04-06T20:09:10.840Z,40.43
2019-04-06T20:11:42.644Z,40.56
2019-04-06T20:14:14.636Z,40.85
2019-04-06T20:16:47.779Z,40.81
2019-04-06T20:19:22.396Z,41.18
2019-04-06T20:21:53.980Z,40.73
2019-04-06T20:24:27.598Z,40.76
2019-04-06T20:26:59.264Z,41.32
2019-04-06T20:29:31.009Z,41.28
2019-04-06T20:32:03.723Z,41.17
2019-04-06T20:34:35.534Z,41.08
2019-04-06T20:37:09.444Z,40.95
2019-04-06T20:39:41.108Z,41.09
2019-04-06T20:42:13.293Z,41.14
2019-04-06T20:44:45.141Z,41.55
2019-04-06T20:47:17.834Z,41.40
2019-04-06T20:49:49.520Z,41.50
2019-04-06T20:52:21.707Z,41.64
2019-04-06T20:54:53.782Z,41.39
2019-04-06T20:57:27.530Z,41.70
2019-04-06T20:59:59.538Z,41.77
2019-04-06T21:02:32.433Z,42.13
2019-04-06T21:05:06.997Z,42.24
2019-04-06T21:07:38.401Z,41.97
2019-04-06T21:10:10.941Z,42.30
2019-04-06T21:12:43.336Z,42.27
2019-04-06T21:15:18.822Z,42.50
2019-04-06T21:17:48.233Z,42.55
2019-04-06T21:20:21.946Z,42.65
2019-04-06T21:22:54.095Z,42.33
2019-04-06T21:25:25.634Z,42.61
2019-04-06T21:27:57.199Z,42.72
2019-04-06T21:30:30.460Z,42.55
2019-04-06T21:33:02.163Z,42.58
2019-04-06T21:35:33.694Z,43.15
2019-04-06T21:38:05.557Z,43.00
2019-04-06T21:40:41.307Z,42.98
2019-04-06T21:43:12.685Z,43.22
2019-04-06T21:45:46.745Z,43.35
2019-04-06T21:48:19.742Z,43.52
2019-04-06T21:50:51.693Z,43.99
2019-04-06T21:53:23.435Z,45.06
2019-04-06T21:56:04.152Z,46.23
2019-04-06T21:58:30.420Z,46.31
2019-04-06T22:01:02.661Z,46.71
2019-04-06T22:03:34.712Z,47.13
2019-04-06T22:06:06.580Z,47.11
2019-04-06T22:08:38.499Z,47.13
2019-04-06T22:11:10.036Z,47.28
2019-04-06T22:13:41.890Z,47.68
2019-04-06T22:16:13.974Z,47.64
2019-04-06T22:18:45.418Z,47.22
2019-04-06T22:21:17.116Z,47.00
2019-04-06T22:23:48.740Z,46.51
2019-04-06T22:26:21.547Z,46.41
2019-04-06T22:28:53.500Z,46.14
2019-04-06T22:31:25.014Z,45.99
2019-04-06T22:33:56.844Z,45.49
2019-04-06T22:36:28.644Z,45.45
2019-04-06T22:39:00.693Z,45.62
2019-04-06T22:41:33.916Z,45.83
2019-04-06T22:44:05.908Z,46.00
2019-04-06T22:46:38.860Z,46.14
2019-04-06T22:49:13.439Z,46.34
2019-04-06T22:51:46.001Z,46.43
2019-04-06T22:54:17.750Z,46.39
2019-04-06T22:56:49.567Z,46.46
2019-04-06T22:59:21.083Z,46.79
2019-04-06T23:01:53.271Z,46.93
2019-04-06T23:04:46.623Z,47.29
2019-04-06T23:07:16.685Z,47.54
2019-04-06T23:09:48.388Z,48.34
2019-04-06T23:12:20.044Z,49.01
2019-04-06T23:14:53.708Z,48.41
2019-04-06T23:17:26.053Z,48.53
2019-04-06T23:19:57.857Z,48.24
2019-04-06T23:22:30.156Z,48.61
2019-04-06T23:25:02.031Z,48.98
2019-04-06T23:27:33.669Z,49.48
2019-04-06T23:30:08.844Z,49.72
2019-04-06T23:32:41.017Z,49.87
2019-04-06T23:35:12.945Z,50.23
2019-04-06T23:37:47.098Z,49.72
2019-04-06T23:40:17.904Z,49.94
2019-04-06T23:42:49.214Z,50.07
2019-04-06T23:45:21.086Z,50.20
2019-04-06T23:47:52.721Z,50.70
2019-04-06T23:50:25.429Z,50.63
2019-04-06T23:52:57.611Z,51.25
2019-04-06T23:55:29.428Z,51.59
2019-04-06T23:58:01.652Z,51.71
